EVLA/LPX METAR and TAF weather

Enter ICAO airport designator
Station Type Date Time Source
EVLA METAR 2020/01/20 15:50 UTC NOAA

EVLA 201550Z AUTO 25019KT 9999 OVC009/// 05/04 Q1032


Station Type Date Time Source
EVLA Decoded METAR 2020/01/20 15:50 UTC NOAA

Liepaja International Airport, Latvia (EVLA) 56-31N 021-05E
Jan 20, 2020 - 10:50 AM EST / 2020.01.20 1550 UTC
Wind: from the WSW (250 degrees) at 22 MPH (19 KT):0
Visibility: greater than 7 mile(s):0
Sky conditions: overcast
Temperature: 41 F (5 C)
Dew Point: 39 F (4 C)
Relative Humidity: 93%
Pressure (altimeter): 30.47 in. Hg (1032 hPa)
ob: EVLA 201550Z AUTO 25019KT 9999 OVC009/// 05/04 Q1032
cycle: 16

Station Type Date Time Source
EVLA TAF 2020/01/20 15:07 UTC NOAA

TAF EVLA 201404Z 2015/2115 26014G28KT 9999 SCT020
TEMPO 2015/2016 BKN007
TEMPO 2016/2112 26015G30KT BKN010
BECMG 2022/2024 OVC005
BECMG 2109/2111 BKN015

Example: see airport list